createdAt,value
2022-07-29T00:00:58.044Z,16.60
2022-07-29T00:03:24.792Z,16.50
2022-07-29T00:05:53.942Z,16.50
2022-07-29T00:08:21.071Z,16.50
2022-07-29T00:10:48.009Z,16.60
2022-07-29T00:13:14.787Z,16.50
2022-07-29T00:15:41.609Z,16.50
2022-07-29T00:18:08.300Z,16.60
2022-07-29T00:20:34.962Z,16.50
2022-07-29T00:23:01.705Z,16.50
2022-07-29T00:25:28.328Z,16.40
2022-07-29T00:27:55.023Z,16.40
2022-07-29T00:30:21.890Z,16.40
2022-07-29T00:32:48.534Z,16.40
2022-07-29T00:35:34.165Z,16.40
2022-07-29T00:38:00.778Z,16.40
2022-07-29T00:40:28.899Z,16.40
2022-07-29T00:42:55.631Z,16.40
2022-07-29T00:45:23.181Z,16.40
2022-07-29T00:47:50.197Z,16.40
2022-07-29T00:50:17.138Z,16.40
2022-07-29T00:52:44.199Z,16.40
2022-07-29T00:55:14.216Z,16.40
2022-07-29T00:57:42.662Z,16.40
2022-07-29T01:00:13.835Z,16.40
2022-07-29T01:02:40.523Z,16.30
2022-07-29T01:05:08.293Z,16.30
2022-07-29T01:07:39.506Z,16.30
2022-07-29T01:10:08.687Z,16.30
2022-07-29T01:12:36.604Z,16.20
2022-07-29T01:15:06.255Z,16.30
2022-07-29T01:17:34.882Z,16.30
2022-07-29T01:20:16.503Z,16.30
2022-07-29T01:23:32.065Z,16.30
2022-07-29T01:26:13.738Z,16.30
2022-07-29T01:29:00.559Z,16.20
2022-07-29T01:31:56.598Z,16.30
2022-07-29T01:34:51.269Z,16.30
2022-07-29T01:37:42.533Z,16.20
2022-07-29T01:40:35.326Z,16.20
2022-07-29T01:43:11.278Z,16.20
2022-07-29T01:46:01.556Z,16.20
2022-07-29T01:48:48.165Z,16.20
2022-07-29T01:51:54.870Z,16.20
2022-07-29T01:54:46.676Z,16.20
2022-07-29T01:57:18.246Z,16.10
2022-07-29T01:59:47.435Z,16.00
2022-07-29T02:02:17.327Z,16.10
2022-07-29T02:04:46.548Z,16.00
2022-07-29T02:07:19.187Z,16.10
2022-07-29T02:09:48.147Z,16.00
2022-07-29T02:12:17.376Z,16.00
2022-07-29T02:14:48.362Z,16.00
2022-07-29T02:17:21.134Z,16.00
2022-07-29T02:19:49.215Z,16.00
2022-07-29T02:22:17.594Z,16.00
2022-07-29T02:24:45.595Z,16.00
2022-07-29T02:27:14.270Z,15.90
2022-07-29T02:29:41.434Z,15.90
2022-07-29T02:32:10.652Z,15.90
2022-07-29T02:34:40.630Z,15.90
2022-07-29T02:37:10.649Z,15.90
2022-07-29T02:39:39.926Z,15.90
2022-07-29T02:42:10.955Z,15.90
2022-07-29T02:44:38.062Z,15.90
2022-07-29T02:47:31.482Z,15.90
2022-07-29T02:50:25.119Z,15.90
2022-07-29T02:52:56.124Z,16.00
2022-07-29T02:55:34.410Z,15.80
2022-07-29T02:58:22.001Z,15.90
2022-07-29T03:00:51.658Z,15.90
2022-07-29T03:03:19.909Z,15.90
2022-07-29T03:05:46.751Z,15.80
2022-07-29T03:08:15.631Z,15.80
2022-07-29T03:10:46.455Z,15.80
2022-07-29T03:13:14.057Z,15.80
2022-07-29T03:15:42.993Z,15.80
2022-07-29T03:18:10.407Z,15.80
2022-07-29T03:20:38.823Z,15.80
2022-07-29T03:23:05.659Z,15.80
2022-07-29T03:25:32.314Z,15.80
2022-07-29T03:27:58.942Z,15.80
2022-07-29T03:30:25.701Z,15.70
2022-07-29T03:32:53.508Z,15.70
2022-07-29T03:35:21.464Z,15.70
2022-07-29T03:37:48.222Z,15.70
2022-07-29T03:40:28.566Z,15.70
2022-07-29T03:42:56.235Z,15.60
2022-07-29T03:45:24.029Z,15.60
2022-07-29T03:48:00.609Z,15.60
2022-07-29T03:50:31.191Z,15.60
2022-07-29T03:52:58.471Z,15.50
2022-07-29T03:55:26.615Z,15.60
2022-07-29T03:57:53.894Z,15.60
2022-07-29T04:00:20.706Z,15.50
2022-07-29T04:02:49.432Z,15.60
2022-07-29T04:05:17.460Z,15.50
2022-07-29T04:07:48.946Z,15.60
2022-07-29T04:10:30.190Z,15.60
2022-07-29T04:12:58.719Z,15.60
2022-07-29T04:15:25.432Z,15.50
2022-07-29T04:17:52.088Z,15.50
2022-07-29T04:20:19.420Z,15.50
2022-07-29T04:22:46.051Z,15.50
2022-07-29T04:25:12.714Z,15.50
2022-07-29T04:27:59.338Z,15.50
2022-07-29T04:30:25.975Z,15.50
2022-07-29T04:32:52.979Z,15.50
2022-07-29T04:35:20.475Z,15.60
2022-07-29T04:37:47.126Z,15.60
2022-07-29T04:40:13.760Z,15.50
2022-07-29T04:42:43.953Z,15.60
2022-07-29T04:45:13.772Z,15.60
2022-07-29T04:47:40.879Z,15.60
2022-07-29T04:50:08.719Z,15.60
2022-07-29T04:52:36.237Z,15.60
2022-07-29T04:55:04.091Z,15.60
2022-07-29T04:57:30.960Z,15.60
2022-07-29T04:59:57.599Z,15.60
2022-07-29T05:02:24.342Z,15.60
2022-07-29T05:04:51.075Z,15.60
2022-07-29T05:07:17.849Z,15.60
2022-07-29T05:09:44.505Z,15.70
2022-07-29T05:12:11.790Z,15.70
2022-07-29T05:14:38.425Z,15.70
2022-07-29T05:17:05.131Z,15.70
2022-07-29T05:19:31.789Z,15.70
2022-07-29T05:21:58.577Z,15.70
2022-07-29T05:24:25.204Z,15.70
2022-07-29T05:26:51.830Z,15.70
2022-07-29T05:29:44.070Z,15.70
2022-07-29T05:32:05.681Z,15.70
2022-07-29T05:34:32.752Z,15.80
2022-07-29T05:36:59.585Z,15.90
2022-07-29T05:39:47.197Z,15.80
2022-07-29T05:42:12.997Z,15.90
2022-07-29T05:44:40.358Z,16.00
2022-07-29T05:47:07.465Z,16.10
2022-07-29T05:49:34.183Z,16.00
2022-07-29T05:52:00.958Z,16.00
2022-07-29T05:54:27.698Z,16.10
2022-07-29T05:56:54.328Z,16.10
2022-07-29T05:59:20.998Z,16.10
2022-07-29T06:01:47.816Z,16.00
2022-07-29T06:04:14.797Z,16.00
2022-07-29T06:06:41.632Z,16.10
2022-07-29T06:09:12.331Z,16.10
2022-07-29T06:11:39.643Z,16.20
2022-07-29T06:14:06.316Z,16.10
2022-07-29T06:16:33.072Z,16.10
2022-07-29T06:18:59.786Z,16.20
2022-07-29T06:21:26.506Z,16.30
2022-07-29T06:23:53.133Z,16.30
2022-07-29T06:26:19.849Z,16.40
2022-07-29T06:28:58.227Z,16.40
2022-07-29T06:31:25.380Z,16.50
2022-07-29T06:33:52.143Z,16.50
2022-07-29T06:36:21.748Z,16.60
2022-07-29T06:38:52.018Z,16.70
2022-07-29T06:41:19.216Z,16.80
2022-07-29T06:43:52.236Z,16.90
2022-07-29T06:46:21.746Z,16.90
2022-07-29T06:48:49.240Z,17.10
2022-07-29T06:51:17.209Z,17.20
2022-07-29T06:54:00.194Z,17.30
2022-07-29T06:56:31.610Z,17.50
2022-07-29T06:58:58.442Z,17.50
2022-07-29T07:01:25.203Z,17.60
2022-07-29T07:03:51.822Z,17.70
2022-07-29T07:06:18.489Z,17.70
2022-07-29T07:08:45.165Z,17.80
2022-07-29T07:11:12.255Z,17.80
2022-07-29T07:13:38.897Z,17.80
2022-07-29T07:16:05.901Z,17.70
2022-07-29T07:18:32.874Z,17.80
2022-07-29T07:20:59.642Z,17.80
2022-07-29T07:23:26.435Z,17.80
2022-07-29T07:25:53.223Z,17.90
2022-07-29T07:28:25.025Z,18.00
2022-07-29T07:30:52.612Z,18.10
2022-07-29T07:33:19.331Z,18.10
2022-07-29T07:35:46.007Z,18.20
2022-07-29T07:38:13.025Z,18.30
2022-07-29T07:40:39.794Z,18.40
2022-07-29T07:43:06.506Z,18.40
2022-07-29T07:45:38.118Z,18.40
2022-07-29T07:48:05.825Z,18.50
2022-07-29T07:50:32.514Z,18.60
2022-07-29T07:52:59.318Z,18.70
2022-07-29T07:55:26.872Z,18.80
2022-07-29T07:57:54.468Z,18.90
2022-07-29T08:00:23.741Z,19.10
2022-07-29T08:02:51.065Z,19.20
2022-07-29T08:05:18.239Z,19.30
2022-07-29T08:07:48.771Z,19.40
2022-07-29T08:10:36.574Z,19.40
2022-07-29T08:13:11.773Z,19.50
2022-07-29T08:15:40.484Z,19.60
2022-07-29T08:18:08.929Z,19.50
2022-07-29T08:20:36.781Z,19.60
2022-07-29T08:23:04.061Z,19.60
2022-07-29T08:25:30.785Z,19.70
2022-07-29T08:27:57.499Z,19.60
2022-07-29T08:30:24.149Z,19.50
2022-07-29T08:32:55.175Z,19.60
2022-07-29T08:35:24.110Z,19.50
2022-07-29T08:37:51.483Z,19.60
2022-07-29T08:40:18.449Z,19.70
2022-07-29T08:42:45.524Z,19.90
2022-07-29T08:45:12.938Z,20.10
2022-07-29T08:47:41.001Z,20.10
2022-07-29T08:50:09.521Z,20.20
2022-07-29T08:52:41.560Z,20.10
2022-07-29T08:55:10.572Z,20.20
2022-07-29T08:57:39.449Z,20.30
2022-07-29T09:00:19.322Z,20.30
2022-07-29T09:02:52.631Z,20.30
2022-07-29T09:05:20.017Z,20.30
2022-07-29T09:07:48.940Z,20.40
2022-07-29T09:10:15.790Z,20.50
2022-07-29T09:12:42.746Z,20.60
2022-07-29T09:15:09.631Z,20.70
2022-07-29T09:17:47.734Z,20.80
2022-07-29T09:20:18.060Z,21.00
2022-07-29T09:22:48.095Z,21.10
2022-07-29T09:25:14.807Z,21.10
2022-07-29T09:27:41.504Z,21.20
2022-07-29T09:30:11.590Z,21.10
2022-07-29T09:32:59.418Z,21.00
2022-07-29T09:35:27.265Z,21.00
2022-07-29T09:37:54.908Z,21.10
2022-07-29T09:40:28.942Z,20.90
2022-07-29T09:42:58.579Z,20.90
2022-07-29T09:45:30.468Z,20.90
2022-07-29T09:48:01.169Z,20.90
2022-07-29T09:50:41.169Z,20.90
2022-07-29T09:53:10.251Z,20.80
2022-07-29T09:55:50.634Z,20.80
2022-07-29T09:58:19.282Z,20.80
2022-07-29T10:00:47.369Z,20.80
2022-07-29T10:03:14.994Z,20.70
2022-07-29T10:05:43.022Z,20.80
2022-07-29T10:08:13.178Z,20.80
2022-07-29T10:10:42.800Z,20.70
2022-07-29T10:13:16.515Z,20.70
2022-07-29T10:15:46.031Z,20.70
2022-07-29T10:18:15.100Z,20.60
2022-07-29T10:20:42.038Z,20.60
2022-07-29T10:23:09.938Z,20.50
2022-07-29T10:25:36.725Z,20.40
2022-07-29T10:28:03.749Z,20.40
2022-07-29T10:30:30.586Z,20.40
2022-07-29T10:33:38.577Z,20.30
2022-07-29T10:36:24.467Z,20.20
2022-07-29T10:39:05.270Z,20.10
2022-07-29T10:41:52.743Z,20.10
2022-07-29T10:44:24.745Z,20.10
2022-07-29T10:46:53.180Z,20.10
2022-07-29T10:49:27.041Z,20.00
2022-07-29T10:52:10.599Z,20.00
2022-07-29T10:54:46.067Z,20.10
2022-07-29T10:57:17.228Z,20.00
2022-07-29T10:59:46.378Z,20.10
2022-07-29T11:02:41.307Z,20.10
2022-07-29T11:05:14.410Z,20.10
2022-07-29T11:08:20.403Z,20.10
2022-07-29T11:10:52.571Z,20.10
2022-07-29T11:13:44.303Z,20.00
2022-07-29T11:16:11.365Z,20.10
2022-07-29T11:19:13.515Z,20.10
2022-07-29T11:21:49.040Z,20.20
2022-07-29T11:24:29.059Z,20.20
2022-07-29T11:27:14.338Z,20.30
2022-07-29T11:29:56.323Z,20.30
2022-07-29T11:32:25.518Z,20.40
2022-07-29T11:35:38.510Z,20.40
2022-07-29T11:38:29.012Z,20.50
2022-07-29T11:41:25.588Z,20.50
2022-07-29T11:43:54.443Z,20.50
2022-07-29T11:46:50.385Z,20.50
2022-07-29T11:49:31.737Z,20.50
2022-07-29T11:52:02.171Z,20.50
2022-07-29T11:57:21.921Z,20.50
2022-07-29T11:59:48.804Z,20.60
2022-07-29T12:02:37.313Z,20.70
2022-07-29T12:05:10.886Z,20.60
2022-07-29T12:07:39.336Z,20.60
2022-07-29T12:10:11.461Z,20.60
2022-07-29T12:12:53.654Z,20.70
2022-07-29T12:15:24.972Z,20.80
2022-07-29T12:18:16.556Z,20.90
2022-07-29T12:20:46.456Z,21.00
2022-07-29T12:23:13.379Z,21.10
2022-07-29T12:25:44.007Z,21.10
2022-07-29T12:28:14.372Z,21.20
2022-07-29T12:30:53.505Z,21.20
2022-07-29T12:33:23.869Z,21.20
2022-07-29T12:36:17.406Z,21.20
2022-07-29T12:38:43.969Z,21.20
2022-07-29T12:41:11.706Z,21.30
2022-07-29T12:43:38.417Z,21.40
2022-07-29T12:46:15.799Z,21.30
2022-07-29T12:48:44.504Z,21.50
2022-07-29T12:51:12.751Z,21.50
2022-07-29T12:53:39.791Z,21.60
2022-07-29T12:56:26.560Z,21.60
2022-07-29T12:58:54.850Z,21.70
2022-07-29T13:01:21.870Z,21.70
2022-07-29T13:03:57.306Z,21.80
2022-07-29T13:06:46.103Z,21.90
2022-07-29T13:09:19.592Z,22.10
2022-07-29T13:11:51.770Z,22.20
2022-07-29T13:14:35.195Z,22.30
2022-07-29T13:17:13.358Z,22.30
2022-07-29T13:19:51.863Z,22.50
2022-07-29T13:22:25.418Z,22.60
2022-07-29T13:24:52.339Z,22.60
2022-07-29T13:27:20.964Z,22.60
2022-07-29T13:29:48.142Z,22.70
2022-07-29T13:32:15.055Z,22.70
2022-07-29T13:34:41.834Z,22.70
2022-07-29T13:39:43.061Z,22.90
2022-07-29T13:42:20.074Z,22.80
2022-07-29T13:44:46.834Z,22.90
2022-07-29T13:47:13.835Z,22.90
2022-07-29T13:49:40.463Z,23.00
2022-07-29T13:52:08.324Z,23.20
2022-07-29T13:54:42.071Z,23.40
2022-07-29T13:57:09.761Z,23.60
2022-07-29T13:59:36.400Z,23.60
2022-07-29T14:02:03.467Z,23.80
2022-07-29T14:04:30.235Z,24.10
2022-07-29T14:06:56.950Z,24.10
2022-07-29T14:09:23.938Z,24.30
2022-07-29T14:11:53.817Z,24.30
2022-07-29T14:14:20.970Z,24.20
2022-07-29T14:16:52.217Z,24.20
2022-07-29T14:19:19.145Z,24.20
2022-07-29T14:21:46.313Z,24.30
2022-07-29T14:24:21.528Z,24.30
2022-07-29T14:26:48.558Z,24.30
2022-07-29T14:29:15.271Z,24.20
2022-07-29T14:31:42.015Z,24.30
2022-07-29T14:34:08.669Z,24.30
2022-07-29T14:36:35.793Z,24.10
2022-07-29T14:39:02.474Z,24.00
2022-07-29T14:41:29.209Z,24.00
2022-07-29T14:43:55.994Z,23.80
2022-07-29T14:46:22.753Z,23.70
2022-07-29T14:48:49.571Z,23.60
2022-07-29T14:51:16.460Z,23.50
2022-07-29T14:53:43.070Z,23.40
2022-07-29T14:56:34.137Z,23.40
2022-07-29T14:59:00.098Z,23.30
2022-07-29T15:01:26.796Z,23.30
2022-07-29T15:03:57.990Z,23.40
2022-07-29T15:06:26.716Z,23.60
2022-07-29T15:08:53.444Z,23.60
2022-07-29T15:11:20.085Z,23.70
2022-07-29T15:13:46.778Z,23.60
2022-07-29T15:16:13.495Z,23.60
2022-07-29T15:18:40.289Z,23.50
2022-07-29T15:21:07.904Z,23.50
2022-07-29T15:23:38.083Z,23.70
2022-07-29T15:26:05.173Z,23.90
2022-07-29T15:28:31.925Z,24.00
2022-07-29T15:30:59.249Z,24.00
2022-07-29T15:33:26.729Z,24.20
2022-07-29T15:35:53.441Z,24.10
2022-07-29T15:38:20.395Z,24.00
2022-07-29T15:40:55.574Z,24.00
2022-07-29T15:43:22.363Z,24.00
2022-07-29T15:46:08.142Z,23.90
2022-07-29T15:48:40.290Z,23.90
2022-07-29T15:51:06.988Z,23.80
2022-07-29T15:53:35.396Z,23.60
2022-07-29T15:56:02.229Z,23.60
2022-07-29T15:58:28.939Z,23.60
2022-07-29T16:00:55.764Z,23.50
2022-07-29T16:03:22.885Z,23.40
2022-07-29T16:05:49.543Z,23.40
2022-07-29T16:08:16.239Z,23.40
2022-07-29T16:10:42.864Z,23.40
2022-07-29T16:13:09.535Z,23.30
2022-07-29T16:15:36.189Z,23.30
2022-07-29T16:18:02.890Z,23.30
2022-07-29T16:20:30.155Z,23.20
2022-07-29T16:22:56.981Z,23.20
2022-07-29T16:25:38.395Z,23.20
2022-07-29T16:28:10.496Z,23.20
2022-07-29T16:30:39.700Z,23.00
2022-07-29T16:33:08.383Z,23.10
2022-07-29T16:35:39.505Z,23.10
2022-07-29T16:38:06.871Z,23.00
2022-07-29T16:40:33.650Z,23.10
2022-07-29T16:43:00.344Z,23.10
2022-07-29T16:45:28.767Z,23.10
2022-07-29T16:48:08.518Z,23.10
2022-07-29T16:50:36.236Z,23.10
2022-07-29T16:53:03.001Z,23.10
2022-07-29T16:55:29.687Z,23.10
2022-07-29T16:57:56.426Z,23.10
2022-07-29T17:00:23.629Z,23.10
2022-07-29T17:02:50.654Z,23.10
2022-07-29T17:05:17.562Z,23.10
2022-07-29T17:07:44.582Z,23.00
2022-07-29T17:10:11.589Z,23.10
2022-07-29T17:12:40.049Z,23.10
2022-07-29T17:15:08.686Z,23.10
2022-07-29T17:17:39.000Z,23.10
2022-07-29T17:20:21.449Z,23.00
2022-07-29T17:22:48.476Z,23.00
2022-07-29T17:25:20.675Z,23.00
2022-07-29T17:27:49.569Z,23.00
2022-07-29T17:30:16.477Z,23.10
2022-07-29T17:32:43.118Z,23.00
2022-07-29T17:35:28.951Z,23.00
2022-07-29T17:37:56.223Z,23.00
2022-07-29T17:40:23.275Z,22.90
2022-07-29T17:42:50.171Z,23.00
2022-07-29T17:45:17.215Z,22.90
2022-07-29T17:47:44.998Z,22.90
2022-07-29T17:50:16.745Z,22.90
2022-07-29T17:52:43.431Z,22.90
2022-07-29T17:55:10.605Z,22.90
2022-07-29T17:57:37.424Z,22.80
2022-07-29T18:00:05.407Z,22.80
2022-07-29T18:02:37.322Z,22.70
2022-07-29T18:05:05.023Z,22.70
2022-07-29T18:07:31.702Z,22.70
2022-07-29T18:10:00.531Z,22.60
2022-07-29T18:12:27.874Z,22.70
2022-07-29T18:14:54.511Z,22.60
2022-07-29T18:17:21.203Z,22.60
2022-07-29T18:20:01.178Z,22.50
2022-07-29T18:22:27.977Z,22.40
2022-07-29T18:24:54.747Z,22.40
2022-07-29T18:27:21.393Z,22.30
2022-07-29T18:29:51.108Z,22.40
2022-07-29T18:32:17.946Z,22.40
2022-07-29T18:34:55.307Z,22.30
2022-07-29T18:38:01.609Z,22.30
2022-07-29T18:40:10.603Z,22.30
2022-07-29T18:42:40.611Z,22.20
2022-07-29T18:45:18.988Z,22.10
2022-07-29T18:47:47.569Z,22.10
2022-07-29T18:50:14.703Z,22.00
2022-07-29T18:52:41.854Z,21.90
2022-07-29T18:55:08.805Z,21.90
2022-07-29T18:57:54.745Z,21.80
2022-07-29T19:00:22.734Z,21.70
2022-07-29T19:02:49.942Z,21.60
2022-07-29T19:05:16.712Z,21.60
2022-07-29T19:07:43.502Z,21.60
2022-07-29T19:10:11.159Z,21.50
2022-07-29T19:12:37.841Z,21.50
2022-07-29T19:15:04.786Z,21.40
2022-07-29T19:17:31.433Z,21.40
2022-07-29T19:19:58.116Z,21.30
2022-07-29T19:22:24.859Z,21.20
2022-07-29T19:24:51.654Z,21.20
2022-07-29T19:27:20.721Z,21.20
2022-07-29T19:29:47.456Z,21.00
2022-07-29T19:32:14.552Z,21.00
2022-07-29T19:35:10.794Z,20.90
2022-07-29T19:37:37.535Z,20.90
2022-07-29T19:40:05.608Z,20.80
2022-07-29T19:42:32.250Z,20.70
2022-07-29T19:44:58.879Z,20.60
2022-07-29T19:47:26.647Z,20.60
2022-07-29T19:49:53.368Z,20.50
2022-07-29T19:52:22.329Z,20.40
2022-07-29T19:54:51.502Z,20.40
2022-07-29T19:57:21.229Z,20.30
2022-07-29T19:59:47.974Z,20.20
2022-07-29T20:02:14.756Z,20.10
2022-07-29T20:04:42.835Z,20.10
2022-07-29T20:07:09.517Z,20.00
2022-07-29T20:09:36.206Z,20.00
2022-07-29T20:12:04.680Z,20.00
2022-07-29T20:14:31.442Z,19.90
2022-07-29T20:16:58.445Z,19.80
2022-07-29T20:19:27.964Z,19.80
2022-07-29T20:21:54.785Z,19.80
2022-07-29T20:24:21.840Z,19.70
2022-07-29T20:26:49.233Z,19.70
2022-07-29T20:29:16.362Z,19.70
2022-07-29T20:31:43.318Z,19.60
2022-07-29T20:34:10.217Z,19.60
2022-07-29T20:36:40.339Z,19.50
2022-07-29T20:39:07.057Z,19.50
2022-07-29T20:41:33.932Z,19.50
2022-07-29T20:44:01.557Z,19.40
2022-07-29T20:46:28.468Z,19.40
2022-07-29T20:48:55.613Z,19.40
2022-07-29T20:51:22.393Z,19.30
2022-07-29T20:53:51.866Z,19.20
2022-07-29T20:56:19.501Z,19.20
2022-07-29T20:58:46.254Z,19.20
2022-07-29T21:01:13.023Z,19.10
2022-07-29T21:03:39.897Z,19.10
2022-07-29T21:06:07.741Z,19.00
2022-07-29T21:08:34.757Z,19.00
2022-07-29T21:11:01.407Z,19.00
2022-07-29T21:13:28.091Z,19.00
2022-07-29T21:15:59.341Z,18.90
2022-07-29T21:18:34.299Z,18.90
2022-07-29T21:21:08.134Z,18.90
2022-07-29T21:23:35.222Z,18.90
2022-07-29T21:26:02.089Z,19.00
2022-07-29T21:28:36.674Z,19.00
2022-07-29T21:31:06.197Z,19.00
2022-07-29T21:33:33.462Z,19.00
2022-07-29T21:38:48.934Z,19.00
2022-07-29T21:41:15.748Z,19.00
2022-07-29T21:43:42.491Z,19.00
2022-07-29T21:46:09.722Z,18.90
2022-07-29T21:48:37.637Z,19.00
2022-07-29T21:51:06.763Z,19.00
2022-07-29T21:53:33.417Z,18.90
2022-07-29T21:56:00.427Z,18.90
2022-07-29T21:58:27.204Z,18.90
2022-07-29T22:00:54.097Z,18.90
2022-07-29T22:03:20.947Z,18.80
2022-07-29T22:05:47.601Z,18.80
2022-07-29T22:08:14.607Z,18.70
2022-07-29T22:10:41.274Z,18.60
2022-07-29T22:13:07.965Z,18.50
2022-07-29T22:15:34.721Z,18.50
2022-07-29T22:18:01.602Z,18.50
2022-07-29T22:20:28.316Z,18.40
2022-07-29T22:22:55.184Z,18.40
2022-07-29T22:25:22.234Z,18.40
2022-07-29T22:27:48.966Z,18.40
2022-07-29T22:30:16.557Z,18.30
2022-07-29T22:32:43.416Z,18.20
2022-07-29T22:35:10.521Z,18.10
2022-07-29T22:37:37.270Z,18.10
2022-07-29T22:40:05.051Z,18.00
2022-07-29T22:42:32.121Z,18.00
2022-07-29T22:44:58.735Z,18.00
2022-07-29T22:47:39.039Z,18.00
2022-07-29T22:50:12.284Z,17.90
2022-07-29T22:52:39.059Z,17.90
2022-07-29T22:55:06.086Z,17.80
2022-07-29T22:57:32.835Z,17.70
2022-07-29T23:00:02.098Z,17.80
2022-07-29T23:02:29.203Z,17.80
2022-07-29T23:04:56.196Z,17.70
2022-07-29T23:07:23.068Z,17.70
2022-07-29T23:09:49.764Z,17.70
2022-07-29T23:12:16.493Z,17.60
2022-07-29T23:14:43.779Z,17.50
2022-07-29T23:17:10.470Z,17.50
2022-07-29T23:19:37.189Z,17.50
2022-07-29T23:22:03.817Z,17.40
2022-07-29T23:24:30.514Z,17.40
2022-07-29T23:26:57.447Z,17.30
2022-07-29T23:29:24.276Z,17.30
2022-07-29T23:31:51.031Z,17.30
2022-07-29T23:34:17.767Z,17.30
2022-07-29T23:36:44.401Z,17.30
2022-07-29T23:39:12.225Z,17.40
2022-07-29T23:41:38.885Z,17.40
2022-07-29T23:44:05.685Z,17.30
2022-07-29T23:46:32.556Z,17.30
2022-07-29T23:48:59.550Z,17.20
2022-07-29T23:51:26.515Z,17.20
2022-07-29T23:53:54.304Z,17.20
2022-07-29T23:56:21.507Z,17.20
2022-07-29T23:58:48.368Z,17.20
